Latest Weather Observations for Wynyard

IDT60801

Issued at 11:05 pm EST Sunday 20 April 2014 (issued every 30 minutes, with the page automatically refreshed every 10 minutes)

About weather observations | Map of weather stations | Latest weather observations for TAS | Other Formats
Station Details ID: 091107 Name: WYNYARD AIRPORT Lat: -41.00 Lon: 145.73 Height: 12.0 m
Data from the previous 72 hours. | See also: Recent months at Wynyard
Date/Time
EST
Temp
°C
App
Temp
°C
Dew
Point
Rel
Hum
%
Delta-T
°C
Wind Press
QNH
hPa
Press
MSL
hPa
Rain
since 9 am
mm
Dir
 
Spd
km/h
Gust
km/h
Spd
kts
Gust
kts
20/11:00pm 3.8 0.7 3.7 99 0.0 W 9 9 5 5 1016.4 - 1.2
20/10:58pm 4.2 1.2 4.1 99 0.0 W 9 9 5 5 1016.4 - 1.2
20/10:40pm 6.3 4.3 6.2 99 0.0 W 6 7 3 4 1016.3 - 1.2
20/10:30pm 6.3 4.3 6.2 99 0.0 W 6 7 3 4 1016.3 - 1.2
20/10:20pm 5.5 3.3 5.4 99 0.0 SW 6 7 3 4 1016.3 - 1.2
20/10:13pm 5.4 3.0 5.3 99 0.0 SSW 7 7 4 4 1016.2 - 1.2
20/10:00pm 5.4 3.0 5.3 99 0.0 SW 7 9 4 5 1015.9 - 1.2
20/09:53pm 5.1 2.6 5.0 99 0.0 SW 7 9 4 5 1015.9 - 1.2
20/09:30pm 5.9 3.2 5.8 99 0.0 SW 9 11 5 6 1015.5 - 1.2
20/09:00pm 6.4 3.5 6.3 99 0.0 W 11 13 6 7 1015.3 1015.3 1.2
20/08:30pm 7.1 4.7 7.0 99 0.0 WSW 9 11 5 6 1014.9 - 1.2
20/08:00pm 8.9 6.4 8.0 94 0.4 WNW 11 13 6 7 1014.6 - 1.2
20/07:30pm 9.7 7.3 8.5 92 0.6 W 11 13 6 7 1014.2 - 1.2
20/07:00pm 10.9 8.2 9.0 88 0.9 W 13 17 7 9 1013.9 - 1.2
20/06:30pm 11.0 9.2 9.3 89 0.8 WSW 9 13 5 7 1013.5 - 1.2
20/06:00pm 12.4 9.4 10.8 90 0.8 WSW 17 20 9 11 1013.0 1013.0 1.2
20/05:30pm 13.3 9.5 11.2 87 1.1 W 22 30 12 16 1012.3 - 1.2
20/05:00pm 14.3 11.1 12.0 86 1.2 W 20 26 11 14 1011.9 - 1.2
20/04:30pm 14.8 12.1 12.8 88 1.1 W 19 26 10 14 1011.6 - 1.2
20/04:00pm 14.5 12.0 14.0 97 0.3 W 20 28 11 15 1011.8 - 1.2
20/03:30pm 15.1 10.5 12.4 84 1.5 W 28 41 15 22 1011.4 - 0.6
20/03:00pm 16.1 12.1 13.0 82 1.7 W 26 33 14 18 1011.1 1011.1 0.6
20/02:54pm 15.9 12.9 13.6 86 1.3 W 22 32 12 17 1011.0 - 0.6
20/02:38pm 14.5 9.9 13.4 93 0.6 WNW 30 39 16 21 1011.1 - 0.6
20/02:30pm 15.7 12.8 12.8 83 1.6 WNW 20 33 11 18 1010.9 - 0.4
20/02:00pm 15.5 11.8 13.9 90 0.9 WNW 26 32 14 17 1011.0 - 0.4
20/01:30pm 15.1 11.1 13.0 87 1.2 WNW 26 39 14 21 1011.2 - 0.4
20/01:16pm 15.8 13.9 15.2 96 0.3 WNW 19 26 10 14 1011.4 - 0.4
20/01:00pm 13.8 8.7 13.0 95 0.4 W 32 43 17 23 1011.7 - 0.4
20/12:57pm 13.8 8.7 12.0 89 1.0 W 30 43 16 23 1011.8 - 0.2
20/12:35pm 16.0 11.2 11.8 76 2.3 W 28 46 15 25 1011.7 - 0.0
20/12:30pm 15.5 11.4 11.5 77 2.2 WNW 24 33 13 18 1011.9 - 0.0
20/12:00pm 16.3 12.0 10.8 70 2.9 W 24 35 13 19 1012.2 1012.2 0.0
20/11:30am 15.7 11.4 10.7 72 2.7 W 24 32 13 17 1012.6 - 0.0
20/11:00am 16.0 12.4 10.5 70 2.9 WNW 20 28 11 15 1012.9 - 0.0
20/10:30am 15.1 11.4 10.3 73 2.5 WNW 20 33 11 18 1013.1 - 0.0
20/10:00am 14.3 11.5 10.1 76 2.2 WNW 15 22 8 12 1013.3 - 0.0
20/09:30am 12.7 11.4 10.1 84 1.3 NNW 7 11 4 6 1013.6 - 0.0
20/09:00am 10.6 9.3 9.8 95 0.4 WNW 7 9 4 5 1013.9 1013.9 0.0
20/08:30am 8.2 6.4 8.1 99 0.0 W 7 9 4 5 1013.8 - 0.0
20/08:00am 6.0 3.7 5.9 99 0.0 WSW 7 9 4 5 1013.9 - 0.0
20/07:30am 6.2 3.6 6.1 99 0.0 NW 9 13 5 7 1013.8 - 0.0
20/07:00am 4.5 1.6 4.4 99 0.0 W 9 11 5 6 1013.7 - 0.0
20/06:30am 4.2 0.8 4.1 99 0.0 W 11 13 6 7 1013.7 - 0.0
20/06:00am 4.7 1.8 4.6 99 0.0 W 9 9 5 5 1013.5 1013.5 0.0
20/05:30am 5.9 3.2 5.8 99 0.0 W 9 11 5 6 1013.8 - 0.0
20/05:00am 5.1 2.3 5.0 99 0.0 WSW 9 9 5 5 1013.7 - 0.0
20/04:30am 6.2 3.6 6.1 99 0.0 W 9 11 5 6 1013.8 - 0.0
20/04:00am 5.2 2.0 5.1 99 0.0 W 11 13 6 7 1013.8 - 0.0
20/03:30am 5.1 2.6 5.0 99 0.0 WSW 7 9 4 5 1013.8 - 0.0
20/03:00am 4.5 1.6 4.4 99 0.0 W 9 11 5 6 1014.0 1014.0 0.0
20/02:30am 4.3 1.3 4.2 99 0.0 W 9 11 5 6 1014.3 - 0.0
20/02:00am 5.0 2.5 4.9 99 0.0 W 7 9 4 5 1014.5 - 0.0
20/01:30am 6.2 4.0 6.1 99 0.0 W 7 9 4 5 1015.0 - 0.0
20/01:00am 5.4 2.6 5.3 99 0.0 WSW 9 11 5 6 1015.1 - 0.0
20/12:30am 6.1 3.5 6.0 99 0.0 SW 9 11 5 6 1015.2 - 0.0
20/12:00am 4.9 2.0 4.8 99 0.0 W 9 9 5 5 1015.5 1015.5 0.0
 
Date/Time
EST
Temp
°C
App
Temp
°C
Dew
Point
Rel
Hum
%
Delta-T
°C
Wind Press
QNH
hPa
Press
MSL
hPa
Rain
since 9 am
mm
Dir
 
Spd
km/h
Gust
km/h
Spd
kts
Gust
kts
19/11:30pm 6.0 3.7 5.9 99 0.0 W 7 9 4 5 1015.6 - 0.0
19/11:00pm 6.6 3.3 6.5 99 0.0 WNW 13 15 7 8 1015.8 - 0.0
19/10:30pm 5.4 3.2 5.3 99 0.0 WSW 6 9 3 5 1016.0 - 0.0
19/10:00pm 5.2 2.8 5.1 99 0.0 WSW 7 9 4 5 1016.2 - 0.0
19/09:30pm 6.8 4.6 6.1 95 0.3 W 7 9 4 5 1016.5 - 0.0
19/09:00pm 5.8 2.6 5.1 95 0.3 WSW 11 13 6 7 1016.6 1016.6 0.0
19/08:30pm 6.0 3.3 5.7 98 0.1 SW 9 11 5 6 1016.7 - 0.0
19/08:00pm 6.4 4.5 5.0 91 0.6 SSW 4 7 2 4 1016.5 - 0.0
19/07:30pm 8.1 5.8 4.9 80 1.4 SW 6 9 3 5 1016.5 - 0.0
19/07:00pm 10.1 7.0 5.7 74 2.0 W 11 17 6 9 1016.5 - 0.0
19/06:30pm 10.9 8.3 5.9 71 2.3 W 9 11 5 6 1016.2 - 0.0
19/06:00pm 10.9 8.1 5.0 67 2.7 WSW 9 11 5 6 1016.1 1016.1 0.0
19/05:30pm 11.8 8.8 4.1 59 3.5 SW 9 13 5 7 1016.0 - 0.0
19/05:00pm 12.5 9.3 5.0 60 3.5 SW 11 17 6 9 1016.0 - 0.0
19/04:30pm 13.5 9.0 4.4 54 4.2 W 17 24 9 13 1016.0 - 0.0
19/04:00pm 14.2 9.3 5.3 55 4.2 W 20 43 11 23 1016.1 - 0.0
19/03:30pm 13.5 9.1 4.6 55 4.1 WSW 17 24 9 13 1016.1 - 0.0
19/03:00pm 13.6 8.6 4.5 54 4.2 WSW 20 28 11 15 1016.2 1016.2 0.0
19/02:30pm 14.3 9.0 4.9 53 4.4 W 22 32 12 17 1016.0 - 0.0
19/02:00pm 13.9 8.8 4.2 52 4.4 SW 20 30 11 16 1016.1 - 0.0
19/01:30pm 14.7 9.9 5.8 55 4.2 WSW 20 35 11 19 1016.2 - 0.0
19/01:00pm 14.8 10.0 4.8 51 4.7 WSW 19 24 10 13 1016.5 - 0.0
19/12:30pm 13.9 7.9 5.3 56 4.0 WSW 26 33 14 18 1016.8 - 0.0
19/12:00pm 14.0 8.2 4.6 53 4.3 WSW 24 33 13 18 1017.1 1017.1 0.0
19/11:30am 13.9 9.0 5.3 56 4.0 SW 20 28 11 15 1017.4 - 0.0
19/11:00am 13.7 8.7 6.3 61 3.5 WSW 22 30 12 16 1017.5 - 0.0
19/10:30am 12.8 6.3 4.8 58 3.7 WSW 28 35 15 19 1017.5 - 0.0
19/10:00am 13.0 8.6 6.6 65 3.1 W 19 28 10 15 1017.5 - 0.0
19/09:30am 12.0 8.4 6.9 71 2.4 WNW 15 20 8 11 1017.6 - 0.0
19/09:00am 11.1 8.0 7.4 78 1.8 WNW 13 17 7 9 1017.7 1017.7 0.6
19/08:30am 9.1 6.8 7.5 90 0.8 W 9 15 5 8 1017.7 - 0.6
19/08:00am 6.0 3.4 5.9 99 0.0 W 9 11 5 6 1017.5 - 0.6
19/07:30am 4.2 1.6 4.1 99 0.0 W 7 9 4 5 1017.3 - 0.6
19/07:00am 3.2 0.0 3.1 99 0.0 W 9 11 5 6 1017.0 - 0.6
19/06:30am 2.8 -1.2 2.7 99 0.0 W 13 15 7 8 1016.8 - 0.6
19/06:00am 3.9 0.8 3.8 99 0.0 W 9 9 5 5 1016.7 1016.7 0.6
19/05:30am 3.6 1.1 3.5 99 0.0 WSW 6 7 3 4 1016.7 - 0.6
19/05:00am 3.8 1.3 3.7 99 0.0 WSW 6 9 3 5 1016.4 - 0.6
19/04:30am 4.4 0.2 3.7 95 0.3 W 15 19 8 10 1016.2 - 0.6
19/04:00am 5.0 1.4 4.9 99 0.0 WSW 13 19 7 10 1016.3 - 0.6
19/03:30am 3.0 -1.4 2.7 98 0.1 WNW 15 17 8 9 1016.2 - 0.6
19/03:00am 5.0 1.7 4.6 97 0.2 WNW 11 13 6 7 1016.2 1016.2 0.6
19/02:30am 6.5 3.1 5.8 95 0.3 NW 13 15 7 8 1016.4 - 0.6
19/02:00am 4.8 1.5 4.7 99 0.0 W 11 13 6 7 1016.5 - 0.6
19/01:30am 4.2 0.4 4.1 99 0.0 WSW 13 17 7 9 1016.6 - 0.6
19/01:00am 5.1 1.8 4.7 97 0.2 W 11 13 6 7 1016.7 - 0.6
19/12:30am 5.2 1.9 4.3 94 0.4 W 11 15 6 8 1016.5 - 0.6
19/12:00am 7.6 4.5 5.4 86 1.0 WNW 11 15 6 8 1016.5 1016.5 0.6
 
Date/Time
EST
Temp
°C
App
Temp
°C
Dew
Point
Rel
Hum
%
Delta-T
°C
Wind Press
QNH
hPa
Press
MSL
hPa
Rain
since 9 am
mm
Dir
 
Spd
km/h
Gust
km/h
Spd
kts
Gust
kts
18/11:30pm 8.0 5.0 6.0 87 0.9 WNW 11 15 6 8 1016.6 - 0.6
18/11:00pm 8.6 5.0 6.7 88 0.9 W 15 20 8 11 1016.3 - 0.6
18/10:30pm 6.9 3.0 5.5 91 0.6 W 15 17 8 9 1016.4 - 0.6
18/10:00pm 7.4 3.9 5.5 88 0.8 W 13 15 7 8 1016.2 - 0.6
18/09:30pm 8.6 4.9 6.2 85 1.1 W 15 17 8 9 1015.9 - 0.6
18/09:00pm 9.5 5.6 6.9 84 1.2 W 17 20 9 11 1015.9 1015.9 0.6
18/08:30pm 9.1 4.6 6.2 82 1.3 WNW 19 20 10 11 1015.4 - 0.6
18/08:00pm 10.1 6.5 6.8 80 1.6 WNW 15 19 8 10 1015.3 - 0.6
18/07:30pm 10.2 6.3 6.9 80 1.6 W 17 22 9 12 1015.2 - 0.6
18/07:00pm 10.4 7.1 6.5 77 1.8 WNW 13 17 7 9 1014.9 - 0.6
18/06:30pm 10.9 7.5 6.1 72 2.2 W 13 20 7 11 1014.5 - 0.6
18/06:00pm 11.7 8.4 6.4 70 2.5 W 13 30 7 16 1014.0 1014.0 0.6
18/05:30pm 12.8 9.1 6.4 65 3.0 WSW 15 24 8 13 1013.5 - 0.6
18/05:00pm 13.6 8.7 6.9 64 3.2 WSW 22 30 12 16 1012.9 - 0.6
18/04:30pm 13.7 8.0 6.6 62 3.4 WSW 26 35 14 19 1012.6 - 0.6
18/04:00pm 15.1 9.5 7.2 59 3.9 WSW 26 39 14 21 1012.0 - 0.6
18/03:30pm 14.6 7.8 6.7 59 3.8 WSW 32 54 17 29 1011.7 - 0.6
18/03:00pm 14.4 6.0 5.7 56 4.1 WSW 39 59 21 32 1011.3 1011.3 0.6
18/02:30pm 15.4 7.6 6.7 56 4.2 WSW 37 61 20 33 1010.9 - 0.6
18/02:02pm 16.1 9.0 6.5 53 4.7 WSW 33 52 18 28 1010.8 - 0.6
18/02:00pm 16.8 9.9 7.4 54 4.7 WSW 33 46 18 25 1010.8 - 0.6
18/01:35pm 15.7 8.5 5.9 52 4.7 WSW 33 61 18 33 1010.5 - 0.6
18/01:30pm 16.2 9.4 7.9 58 4.2 SW 33 46 18 25 1010.4 - 0.6
18/01:12pm 17.0 10.9 8.4 57 4.4 WSW 30 48 16 26 1010.1 - 0.6
18/01:00pm 16.2 9.2 6.9 54 4.6 SW 33 48 18 26 1010.2 - 0.6
18/12:30pm 15.7 9.1 7.7 59 4.0 WSW 32 50 17 27 1010.3 - 0.6
18/12:06pm 15.2 9.6 8.7 65 3.3 WSW 28 46 15 25 1010.3 - 0.6
18/12:00pm 15.5 11.5 10.3 71 2.7 WSW 22 35 12 19 1010.4 1010.4 0.6
18/11:30am 13.5 9.5 10.5 82 1.6 WSW 22 32 12 17 1010.6 - 0.6
18/11:00am 12.3 9.6 10.2 87 1.1 WSW 15 19 8 10 1010.5 - 0.6
18/10:30am 12.3 9.9 10.2 87 1.1 WNW 13 22 7 12 1010.5 - 0.6
18/10:00am 12.2 9.1 10.4 89 0.9 SSW 17 24 9 13 1010.0 - 0.6
18/09:30am 12.1 6.6 10.5 90 0.8 SW 30 44 16 24 1010.2 - 0.6
18/09:03am 12.5 7.9 11.1 91 0.7 SW 26 33 14 18 1010.8 - 0.0
18/09:00am 12.6 8.2 11.7 94 0.5 SW 26 43 14 23 1010.8 1010.8 2.8
18/08:48am 12.7 6.2 11.8 94 0.5 SW 37 61 20 33 1010.6 - 2.8
18/08:46am 12.7 5.0 11.6 93 0.6 SW 43 61 23 33 1010.6 - 2.6
18/08:43am 12.8 5.2 12.3 97 0.3 W 44 61 24 33 1010.7 - 2.4
18/08:30am 14.7 12.5 14.5 99 0.1 NW 19 26 10 14 1010.1 - 0.6
18/08:16am 14.9 14.1 14.1 95 0.5 NW 11 17 6 9 1010.2 - 0.2
18/08:00am 15.2 14.6 13.6 90 0.9 NW 9 13 5 7 1010.3 - 0.0
18/07:30am 15.0 13.5 13.2 89 1.0 WNW 13 17 7 9 1010.4 - 0.0
18/07:00am 15.0 13.2 13.2 89 1.0 WNW 15 20 8 11 1010.7 - 0.0
18/06:30am 14.9 12.7 13.4 91 0.8 WNW 17 22 9 12 1010.9 - 0.0
18/06:00am 15.1 13.0 13.6 91 0.8 W 17 20 9 11 1011.1 1011.1 0.0
18/05:30am 15.4 13.0 13.9 91 0.8 W 19 24 10 13 1011.1 - 0.0
18/05:00am 15.9 14.4 14.1 89 1.0 NNW 15 24 8 13 1011.2 - 0.0
18/04:30am 16.2 14.8 14.4 89 1.0 NNW 15 20 8 11 1011.8 - 0.0
18/04:00am 16.1 14.6 14.3 89 1.0 NNW 15 20 8 11 1012.4 - 0.0
18/03:30am 15.9 15.6 15.4 97 0.3 NW 11 22 6 12 1012.7 - 0.0
18/03:00am 13.2 12.9 13.2 100 0.0 WSW 7 11 4 6 1013.1 1013.1 0.0
18/02:30am 11.8 11.2 11.8 100 0.0 SW 6 9 3 5 1013.6 - 0.0
18/02:02am 11.8 11.2 11.8 100 0.0 W 6 9 3 5 1014.1 - 0.0
18/02:00am 11.8 11.2 11.8 100 0.0 W 6 9 3 5 1014.1 - 0.0
18/01:36am 11.5 11.2 11.5 100 0.0 W 4 7 2 4 1014.6 - 0.0
18/01:30am 11.5 10.6 11.5 100 0.0 W 7 9 4 5 1014.7 - 0.0
18/01:21am 11.7 10.9 11.7 100 0.0 W 7 13 4 7 1014.8 - 0.0
18/01:08am 11.7 11.1 11.7 100 0.0 W 6 11 3 6 1015.1 - 0.0
18/01:00am 11.8 10.7 11.8 100 0.0 W 9 11 5 6 1015.2 - 0.0
18/12:49am 11.8 10.7 11.8 100 0.0 W 9 11 5 6 1015.2 - 0.0
18/12:30am 12.1 11.4 12.1 100 0.0 W 7 9 4 5 1015.4 - 0.0
18/12:18am 11.8 11.0 11.8 100 0.0 WNW 7 11 4 6 1015.6 - 0.0
18/12:00am 11.4 10.1 11.4 100 0.0 W 9 13 5 7 1015.8 1015.8 0.0
 
Date/Time
EST
Temp
°C
App
Temp
°C
Dew
Point
Rel
Hum
%
Delta-T
°C
Wind Press
QNH
hPa
Press
MSL
hPa
Rain
since 9 am
mm
Dir
 
Spd
km/h
Gust
km/h
Spd
kts
Gust
kts
17/11:44pm 11.0 10.0 11.0 100 0.0 WNW 7 9 4 5 1015.9 - 0.0
17/11:30pm 10.6 9.7 10.6 100 0.0 W 6 7 3 4 1016.0 - 0.0
17/11:28pm 10.7 9.6 10.7 100 0.0 W 7 7 4 4 1016.1 - 0.0
17/11:11pm 10.1 9.0 10.1 100 0.0 SW 6 7 3 4 1016.3 - 0.0

Other Formats:

Comma delimited format used in spreadsheet applications
http://www.bom.gov.au/fwo/IDT60801/IDT60801.95957.axf

JavaScript Object Notation format (JSON) in row-major order
http://www.bom.gov.au/fwo/IDT60801/IDT60801.95957.json